Fire Weather Observation
Issued by NWS Grand Junction, CO

Home | Current Version | Previous Version | Text Only | Print | Product List | Glossary Off
Versions: 1 2 3 4 5 6 7 8 9 10 11 12 13 14 15 16 17 18 19 20 21 22 23 24 25 26 27 28 29 30 31 32 33 34 35

000
SHUS65 KGJT 182016
FWOGJT

DAILY FIRE WEATHER OBSERVATION
NATIONAL WEATHER SERVICE GRAND JUNCTION CO
212 PM MDT WED APR 18 2018

STATE OF THE WEATHER (W)               3
DRY BULB TEMPERATURE                   54   DEGREES FAHRENHEIT
RELATIVE HUMIDITY (RH)                 18   PERCENT
LIGHTNING ACTIVITY LEVEL
  (LAL - MIDNIGHT TO 2 PM)             M
WIND DIRECTION                         135  DEGREES (C IF CALM)
WIND SPEED                             9    MPH
MAX TEMP (2 PM - 2 PM)                 56   DEGREES FAHRENHEIT
MIN TEMP (2 PM - 2 PM)                 27   DEGREES FAHRENHEIT
MAX RH (2 PM - 2 PM)                   63   PERCENT
MIN RH (2 PM - 2 PM)                   18   PERCENT
PCPN DURATION                         .01 HOURS
PCPN AMT (2 PM - 2 PM)                  T    INCHES
LAL (2 PM - 2 PM)                       1

$$

METAR KGJT 181953Z 13008KT 10SM CLR 12/M11 A3020 RMK AO2 SLP218
      T01221111



USA.gov is the U.S. government's official web portal to all federal, state and local government web resources and services.